createdAt,value
2023-05-23T00:01:49.612Z,4.50
2023-05-23T00:04:19.070Z,1.85
2023-05-23T00:06:50.942Z,3.40
2023-05-23T00:09:18.010Z,5.93
2023-05-23T00:11:45.446Z,2.53
2023-05-23T00:14:13.647Z,2.33
2023-05-23T00:16:42.815Z,3.65
2023-05-23T00:19:15.482Z,3.83
2023-05-23T00:21:44.067Z,3.83
2023-05-23T00:24:10.826Z,2.05
2023-05-23T00:26:38.892Z,4.32
2023-05-23T00:29:06.213Z,5.78
2023-05-23T00:31:33.098Z,2.88
2023-05-23T00:34:00.146Z,5.93
2023-05-23T00:36:27.157Z,2.58
2023-05-23T00:38:54.487Z,0.70
2023-05-23T00:41:21.539Z,4.75
2023-05-23T00:43:48.748Z,2.83
2023-05-23T00:46:15.895Z,2.13
2023-05-23T00:48:43.113Z,4.20
2023-05-23T00:51:10.003Z,2.45
2023-05-23T00:53:37.010Z,2.70
2023-05-23T00:56:04.087Z,4.03
2023-05-23T00:58:32.255Z,5.07
2023-05-23T01:00:59.840Z,1.70
2023-05-23T01:03:28.851Z,3.42
2023-05-23T01:05:56.619Z,1.40
2023-05-23T01:08:23.688Z,2.20
2023-05-23T01:10:51.517Z,4.97
2023-05-23T01:13:28.017Z,5.65
2023-05-23T01:16:01.219Z,2.20
2023-05-23T01:18:41.681Z,2.58
2023-05-23T01:21:17.953Z,3.78
2023-05-23T01:24:36.311Z,3.70
2023-05-23T01:27:10.119Z,4.75
2023-05-23T01:29:47.184Z,2.22
2023-05-23T01:32:14.485Z,3.55
2023-05-23T01:34:41.526Z,3.90
2023-05-23T01:37:10.715Z,1.42
2023-05-23T01:39:38.969Z,3.53
2023-05-23T01:42:07.278Z,3.22
2023-05-23T01:44:35.498Z,3.30
2023-05-23T01:47:03.577Z,2.72
2023-05-23T01:49:31.275Z,4.55
2023-05-23T01:52:00.726Z,3.95
2023-05-23T01:54:32.586Z,3.72
2023-05-23T01:56:59.697Z,3.00
2023-05-23T01:59:26.488Z,1.70
2023-05-23T02:01:55.073Z,2.95
2023-05-23T02:04:22.311Z,3.15
2023-05-23T02:06:49.108Z,1.30
2023-05-23T02:09:16.822Z,2.50
2023-05-23T02:11:45.299Z,1.52
2023-05-23T02:14:13.095Z,2.65
2023-05-23T02:16:40.512Z,2.95
2023-05-23T02:19:08.008Z,3.03
2023-05-23T02:21:35.676Z,3.72
2023-05-23T02:24:03.687Z,3.60
2023-05-23T02:26:31.432Z,4.85
2023-05-23T02:28:58.191Z,2.65
2023-05-23T02:31:25.123Z,4.53
2023-05-23T02:33:52.305Z,1.80
2023-05-23T02:36:19.870Z,2.25
2023-05-23T02:38:47.223Z,2.08
2023-05-23T02:41:14.471Z,2.05
2023-05-23T02:43:41.936Z,2.40
2023-05-23T02:46:09.175Z,3.30
2023-05-23T02:48:36.531Z,4.97
2023-05-23T02:51:04.203Z,5.22
2023-05-23T02:53:31.049Z,2.30
2023-05-23T02:55:58.445Z,3.58
2023-05-23T02:58:25.402Z,2.55
2023-05-23T03:00:52.217Z,2.50
2023-05-23T03:03:19.262Z,2.40
2023-05-23T03:05:46.440Z,3.20
2023-05-23T03:08:13.616Z,4.03
2023-05-23T03:10:40.730Z,2.28
2023-05-23T03:13:08.550Z,1.75
2023-05-23T03:15:36.186Z,2.17
2023-05-23T03:18:03.285Z,2.78
2023-05-23T03:20:32.300Z,2.75
2023-05-23T03:22:59.730Z,2.22
2023-05-23T03:25:27.148Z,1.73
2023-05-23T03:27:54.822Z,2.75
2023-05-23T03:30:22.034Z,4.15
2023-05-23T03:32:50.106Z,2.40
2023-05-23T03:35:17.319Z,3.45
2023-05-23T03:37:44.879Z,3.10
2023-05-23T03:40:11.947Z,4.65
2023-05-23T03:42:39.886Z,2.67
2023-05-23T03:45:09.000Z,1.98
2023-05-23T03:47:36.391Z,1.67
2023-05-23T03:50:03.537Z,3.20
2023-05-23T03:52:30.799Z,2.25
2023-05-23T03:54:58.116Z,3.95
2023-05-23T03:57:25.317Z,3.33
2023-05-23T03:59:53.119Z,1.65
2023-05-23T04:02:21.968Z,3.38
2023-05-23T04:04:49.167Z,3.67
2023-05-23T04:07:16.660Z,2.63
2023-05-23T04:09:44.591Z,3.58
2023-05-23T04:12:12.745Z,1.27
2023-05-23T04:14:40.360Z,3.75
2023-05-23T04:17:09.025Z,4.95
2023-05-23T04:19:36.371Z,3.05
2023-05-23T04:22:03.355Z,0.80
2023-05-23T04:24:30.491Z,2.33
2023-05-23T04:26:57.554Z,1.33
2023-05-23T04:29:26.383Z,1.13
2023-05-23T04:31:54.948Z,3.03
2023-05-23T04:34:22.516Z,2.03
2023-05-23T04:36:49.667Z,1.50
2023-05-23T04:39:17.336Z,1.67
2023-05-23T04:44:52.853Z,1.95
2023-05-23T04:47:37.173Z,1.48
2023-05-23T04:50:08.958Z,0.47
2023-05-23T04:52:36.123Z,2.88
2023-05-23T04:55:03.024Z,0.65
2023-05-23T04:57:30.540Z,0.73
2023-05-23T04:59:57.972Z,1.55
2023-05-23T05:02:27.323Z,1.20
2023-05-23T05:04:54.560Z,0.90
2023-05-23T05:07:22.072Z,1.75
2023-05-23T05:09:48.957Z,4.60
2023-05-23T05:12:17.192Z,0.38
2023-05-23T05:14:44.031Z,1.67
2023-05-23T05:17:11.462Z,2.38
2023-05-23T05:19:48.695Z,1.05
2023-05-23T05:22:15.679Z,1.48
2023-05-23T05:24:42.971Z,0.50
2023-05-23T05:27:11.957Z,1.27
2023-05-23T05:29:39.008Z,0.57
2023-05-23T05:32:09.258Z,1.00
2023-05-23T05:34:38.168Z,1.27
2023-05-23T05:37:06.986Z,0.43
2023-05-23T05:39:34.324Z,0.70
2023-05-23T05:42:03.802Z,0.65
2023-05-23T05:44:31.308Z,0.93
2023-05-23T05:46:58.278Z,1.35
2023-05-23T05:49:25.874Z,1.10
2023-05-23T05:51:53.663Z,1.33
2023-05-23T05:54:21.194Z,0.32
2023-05-23T05:56:48.298Z,0.45
2023-05-23T05:59:16.225Z,2.58
2023-05-23T06:01:45.059Z,0.95
2023-05-23T06:04:12.952Z,0.38
2023-05-23T06:06:41.013Z,1.00
2023-05-23T06:09:08.959Z,0.55
2023-05-23T06:11:41.100Z,1.15
2023-05-23T06:14:08.621Z,1.50
2023-05-23T06:19:06.314Z,0.85
2023-05-23T06:21:34.223Z,0.50
2023-05-23T06:24:02.523Z,1.48
2023-05-23T06:26:29.967Z,0.57
2023-05-23T06:28:58.145Z,0.93
2023-05-23T06:31:25.503Z,1.15
2023-05-23T06:33:52.559Z,0.17
2023-05-23T06:36:19.699Z,0.63
2023-05-23T06:38:49.075Z,1.45
2023-05-23T06:41:16.416Z,2.67
2023-05-23T06:43:43.380Z,0.95
2023-05-23T06:46:15.531Z,1.42
2023-05-23T06:48:42.554Z,1.30
2023-05-23T06:51:10.733Z,0.45
2023-05-23T06:53:38.127Z,0.98
2023-05-23T06:56:06.387Z,0.30
2023-05-23T06:58:40.012Z,1.08
2023-05-23T07:01:07.151Z,0.32
2023-05-23T07:03:41.417Z,1.38
2023-05-23T07:06:09.095Z,0.20
2023-05-23T07:08:36.316Z,2.00
2023-05-23T07:11:05.073Z,0.47
2023-05-23T07:13:36.862Z,0.65
2023-05-23T07:16:05.305Z,0.35
2023-05-23T07:18:38.286Z,0.00
2023-05-23T07:21:06.443Z,0.80
2023-05-23T07:23:34.502Z,0.40
2023-05-23T07:26:03.272Z,0.52
2023-05-23T07:28:51.318Z,0.65
2023-05-23T07:31:19.014Z,0.57
2023-05-23T07:33:47.235Z,0.95
2023-05-23T07:36:22.460Z,0.20
2023-05-23T07:38:49.986Z,0.43
2023-05-23T07:41:17.009Z,0.25
2023-05-23T07:43:44.197Z,0.30
2023-05-23T07:46:11.840Z,0.00
2023-05-23T07:48:39.072Z,1.48
2023-05-23T07:51:06.069Z,0.10
2023-05-23T07:53:33.194Z,0.17
2023-05-23T07:56:00.571Z,0.55
2023-05-23T07:58:32.593Z,0.38
2023-05-23T08:00:59.882Z,0.10
2023-05-23T08:03:46.876Z,0.43
2023-05-23T08:06:20.850Z,1.08
2023-05-23T08:08:48.130Z,0.00
2023-05-23T08:11:16.105Z,0.10
2023-05-23T08:13:47.847Z,0.10
2023-05-23T08:16:35.113Z,0.10
2023-05-23T08:19:02.718Z,0.52
2023-05-23T08:21:29.589Z,0.80
2023-05-23T08:23:56.575Z,0.10
2023-05-23T08:26:23.479Z,0.98
2023-05-23T08:28:51.781Z,0.15
2023-05-23T08:31:19.680Z,0.05
2023-05-23T08:33:47.057Z,0.00
2023-05-23T08:36:14.175Z,0.90
2023-05-23T08:38:43.648Z,0.20
2023-05-23T08:41:22.973Z,0.28
2023-05-23T08:43:53.680Z,0.98
2023-05-23T08:46:27.489Z,1.25
2023-05-23T08:48:55.380Z,1.00
2023-05-23T08:51:26.593Z,0.33
2023-05-23T08:53:56.648Z,0.63
2023-05-23T08:56:26.042Z,0.60
2023-05-23T08:58:53.424Z,0.00
2023-05-23T09:01:22.809Z,0.00
2023-05-23T09:03:53.328Z,0.55
2023-05-23T09:06:49.628Z,0.20
2023-05-23T09:09:17.557Z,0.10
2023-05-23T09:11:46.255Z,0.10
2023-05-23T09:14:15.471Z,0.23
2023-05-23T09:16:43.719Z,0.00
2023-05-23T09:21:45.881Z,0.85
2023-05-23T09:24:18.780Z,0.10
2023-05-23T09:26:49.598Z,0.28
2023-05-23T09:29:20.007Z,0.50
2023-05-23T09:31:47.592Z,0.20
2023-05-23T09:34:14.869Z,0.73
2023-05-23T09:36:44.402Z,0.35
2023-05-23T09:39:12.681Z,0.05
2023-05-23T09:41:40.235Z,0.10
2023-05-23T09:44:08.657Z,0.35
2023-05-23T09:46:37.295Z,1.30
2023-05-23T09:49:17.929Z,0.28
2023-05-23T09:51:58.134Z,0.35
2023-05-23T09:54:25.055Z,0.35
2023-05-23T09:56:53.081Z,0.73
2023-05-23T09:59:24.238Z,0.88
2023-05-23T10:01:53.206Z,0.08
2023-05-23T10:04:23.550Z,0.38
2023-05-23T10:06:55.820Z,0.50
2023-05-23T10:09:24.051Z,0.10
2023-05-23T10:12:00.518Z,0.70
2023-05-23T10:14:27.673Z,0.55
2023-05-23T10:17:34.697Z,0.28
2023-05-23T10:20:05.729Z,0.75
2023-05-23T10:22:33.898Z,0.15
2023-05-23T10:25:00.821Z,0.73
2023-05-23T10:27:28.189Z,1.35
2023-05-23T10:29:54.991Z,0.28
2023-05-23T10:32:23.765Z,0.00
2023-05-23T10:35:14.858Z,1.40
2023-05-23T10:38:14.047Z,0.17
2023-05-23T10:40:53.391Z,0.85
2023-05-23T10:43:35.501Z,0.03
2023-05-23T10:46:02.777Z,0.47
2023-05-23T10:48:29.972Z,0.28
2023-05-23T10:51:07.562Z,0.90
2023-05-23T10:54:01.292Z,1.25
2023-05-23T10:56:32.212Z,0.20
2023-05-23T10:58:59.417Z,1.65
2023-05-23T11:01:27.583Z,0.98
2023-05-23T11:03:56.214Z,0.60
2023-05-23T11:06:41.249Z,1.00
2023-05-23T11:09:13.006Z,0.70
2023-05-23T11:11:57.401Z,1.02
2023-05-23T11:14:37.869Z,0.00
2023-05-23T11:17:32.278Z,0.88
2023-05-23T11:20:07.430Z,0.28
2023-05-23T11:22:35.137Z,0.20
2023-05-23T11:25:06.719Z,0.43
2023-05-23T11:27:38.161Z,0.10
2023-05-23T11:30:09.916Z,0.38
2023-05-23T11:32:37.329Z,0.00
2023-05-23T11:35:08.672Z,0.52
2023-05-23T11:37:36.178Z,0.35
2023-05-23T11:40:37.132Z,0.77
2023-05-23T11:43:08.526Z,0.15
2023-05-23T11:45:36.274Z,1.38
2023-05-23T11:48:10.564Z,0.63
2023-05-23T11:50:44.417Z,0.30
2023-05-23T11:53:11.265Z,0.13
2023-05-23T11:55:40.713Z,0.55
2023-05-23T11:58:07.760Z,0.10
2023-05-23T12:00:34.821Z,0.25
2023-05-23T12:03:07.834Z,0.38
2023-05-23T12:05:35.314Z,0.20
2023-05-23T12:08:02.270Z,0.03
2023-05-23T12:10:29.605Z,0.00
2023-05-23T12:12:56.764Z,0.45
2023-05-23T12:15:28.307Z,0.10
2023-05-23T12:17:55.762Z,0.63
2023-05-23T12:20:22.752Z,0.28
2023-05-23T12:22:49.891Z,0.82
2023-05-23T12:25:17.222Z,0.15
2023-05-23T12:27:44.563Z,0.00
2023-05-23T12:30:16.418Z,1.15
2023-05-23T12:32:44.994Z,1.15
2023-05-23T12:35:13.386Z,0.00
2023-05-23T12:37:46.430Z,1.40
2023-05-23T12:40:17.775Z,0.68
2023-05-23T12:42:54.813Z,0.30
2023-05-23T12:45:23.018Z,0.57
2023-05-23T12:47:52.966Z,0.15
2023-05-23T12:50:21.094Z,0.73
2023-05-23T12:52:48.070Z,1.00
2023-05-23T12:55:15.660Z,0.28
2023-05-23T12:57:42.572Z,0.03
2023-05-23T13:00:10.044Z,0.47
2023-05-23T13:02:37.293Z,0.38
2023-05-23T13:05:04.230Z,0.13
2023-05-23T13:07:31.420Z,0.10
2023-05-23T13:09:58.542Z,0.57
2023-05-23T13:12:25.727Z,0.17
2023-05-23T13:14:52.704Z,0.00
2023-05-23T13:17:20.033Z,0.00
2023-05-23T13:19:47.568Z,0.20
2023-05-23T13:22:14.969Z,0.65
2023-05-23T13:24:43.657Z,1.60
2023-05-23T13:27:10.935Z,2.20
2023-05-23T13:29:37.999Z,0.35
2023-05-23T13:32:05.535Z,0.35
2023-05-23T13:34:32.666Z,0.55
2023-05-23T13:37:00.075Z,0.10
2023-05-23T13:39:27.260Z,1.17
2023-05-23T13:41:54.001Z,0.55
2023-05-23T13:44:21.403Z,0.43
2023-05-23T13:46:48.511Z,0.45
2023-05-23T13:49:15.694Z,0.22
2023-05-23T13:51:44.471Z,0.60
2023-05-23T13:54:11.889Z,0.38
2023-05-23T13:56:40.256Z,2.15
2023-05-23T13:59:07.407Z,0.88
2023-05-23T14:01:34.563Z,0.47
2023-05-23T14:04:01.826Z,1.08
2023-05-23T14:06:28.812Z,0.38
2023-05-23T14:08:56.220Z,0.95
2023-05-23T14:11:23.160Z,0.60
2023-05-23T14:13:50.134Z,0.00
2023-05-23T14:16:17.288Z,0.45
2023-05-23T14:18:45.161Z,0.10
2023-05-23T14:21:12.218Z,0.45
2023-05-23T14:23:39.532Z,0.40
2023-05-23T14:26:06.672Z,1.15
2023-05-23T14:28:35.736Z,0.65
2023-05-23T14:31:02.912Z,0.05
2023-05-23T14:33:30.066Z,0.95
2023-05-23T14:35:56.827Z,0.10
2023-05-23T14:38:23.609Z,0.10
2023-05-23T14:40:51.070Z,0.35
2023-05-23T14:43:18.383Z,1.63
2023-05-23T14:45:45.714Z,0.63
2023-05-23T14:48:13.148Z,1.65
2023-05-23T14:50:41.055Z,2.20
2023-05-23T14:53:07.887Z,0.90
2023-05-23T14:55:34.685Z,0.80
2023-05-23T14:58:03.714Z,0.95
2023-05-23T15:00:30.535Z,1.92
2023-05-23T15:02:57.946Z,0.38
2023-05-23T15:05:25.592Z,0.30
2023-05-23T15:07:52.578Z,0.70
2023-05-23T15:10:19.642Z,0.10
2023-05-23T15:12:46.401Z,0.10
2023-05-23T15:15:13.598Z,0.35
2023-05-23T15:17:41.095Z,0.20
2023-05-23T15:20:08.645Z,1.05
2023-05-23T15:22:39.700Z,0.75
2023-05-23T15:25:08.360Z,0.65
2023-05-23T15:27:35.279Z,0.17
2023-05-23T15:30:03.201Z,0.45
2023-05-23T15:32:31.101Z,0.75
2023-05-23T15:34:57.926Z,0.68
2023-05-23T15:37:25.138Z,1.02
2023-05-23T15:39:52.480Z,0.20
2023-05-23T15:42:19.635Z,0.05
2023-05-23T15:44:46.647Z,0.47
2023-05-23T15:47:14.045Z,1.05
2023-05-23T15:49:41.056Z,0.00
2023-05-23T15:52:08.379Z,0.10
2023-05-23T15:54:35.157Z,0.65
2023-05-23T15:57:02.123Z,0.25
2023-05-23T15:59:28.961Z,1.15
2023-05-23T16:01:55.987Z,0.08
2023-05-23T16:04:23.940Z,1.98
2023-05-23T16:06:51.340Z,0.10
2023-05-23T16:09:18.726Z,0.25
2023-05-23T16:11:45.841Z,0.00
2023-05-23T16:14:12.908Z,0.22
2023-05-23T16:16:40.353Z,0.95
2023-05-23T16:19:07.453Z,0.73
2023-05-23T16:21:34.826Z,0.82
2023-05-23T16:24:02.221Z,0.90
2023-05-23T16:26:29.029Z,0.43
2023-05-23T16:28:56.063Z,0.10
2023-05-23T16:31:26.897Z,0.17
2023-05-23T16:33:54.055Z,1.75
2023-05-23T16:36:21.170Z,0.63
2023-05-23T16:38:48.133Z,0.43
2023-05-23T16:41:14.916Z,0.00
2023-05-23T16:43:42.077Z,1.23
2023-05-23T16:46:10.299Z,0.75
2023-05-23T16:48:37.727Z,2.17
2023-05-23T16:51:06.509Z,0.32
2023-05-23T16:53:33.906Z,1.75
2023-05-23T16:56:01.437Z,0.35
2023-05-23T16:58:28.990Z,1.55
2023-05-23T17:00:55.988Z,1.20
2023-05-23T17:03:23.402Z,0.47
2023-05-23T17:05:51.367Z,0.20
2023-05-23T17:08:18.558Z,0.52
2023-05-23T17:10:45.650Z,0.50
2023-05-23T17:13:12.473Z,0.52
2023-05-23T17:15:39.745Z,0.55
2023-05-23T17:18:07.692Z,0.85
2023-05-23T17:20:34.892Z,0.77
2023-05-23T17:23:01.708Z,0.30
2023-05-23T17:25:28.456Z,1.17
2023-05-23T17:27:56.371Z,0.10
2023-05-23T17:30:23.404Z,0.25
2023-05-23T17:32:50.946Z,0.38
2023-05-23T17:35:18.092Z,0.20
2023-05-23T17:37:45.332Z,1.10
2023-05-23T17:40:13.901Z,0.13
2023-05-23T17:42:41.548Z,1.70
2023-05-23T17:45:12.289Z,0.03
2023-05-23T17:47:39.313Z,0.22
2023-05-23T17:50:08.635Z,0.63
2023-05-23T17:52:38.228Z,0.65
2023-05-23T17:55:06.380Z,0.35
2023-05-23T17:57:34.168Z,1.08
2023-05-23T18:00:01.710Z,0.35
2023-05-23T18:02:31.034Z,0.00
2023-05-23T18:04:58.267Z,0.32
2023-05-23T18:07:27.100Z,1.55
2023-05-23T18:09:54.446Z,0.20
2023-05-23T18:12:21.628Z,0.32
2023-05-23T18:14:49.638Z,0.50
2023-05-23T18:17:17.622Z,0.00
2023-05-23T18:19:46.377Z,0.55
2023-05-23T18:22:14.639Z,0.40
2023-05-23T18:24:41.809Z,0.20
2023-05-23T18:27:08.768Z,0.10
2023-05-23T18:29:35.764Z,1.30
2023-05-23T18:32:03.359Z,1.17
2023-05-23T18:34:30.170Z,0.65
2023-05-23T18:36:56.941Z,0.22
2023-05-23T18:39:24.159Z,1.13
2023-05-23T18:41:51.389Z,1.00
2023-05-23T18:44:20.697Z,0.00
2023-05-23T18:46:49.015Z,1.85
2023-05-23T18:49:16.519Z,0.00
2023-05-23T18:51:43.621Z,0.05
2023-05-23T18:54:11.510Z,0.22
2023-05-23T18:56:38.343Z,0.17
2023-05-23T18:59:05.145Z,0.63
2023-05-23T19:01:34.070Z,1.17
2023-05-23T19:04:01.926Z,0.20
2023-05-23T19:06:28.907Z,1.02
2023-05-23T19:08:56.114Z,0.80
2023-05-23T19:11:23.412Z,1.50
2023-05-23T19:13:50.470Z,0.20
2023-05-23T19:16:17.769Z,0.30
2023-05-23T19:18:45.138Z,0.00
2023-05-23T19:21:13.005Z,0.88
2023-05-23T19:23:40.226Z,0.50
2023-05-23T19:26:07.977Z,0.20
2023-05-23T19:28:35.166Z,0.00
2023-05-23T19:31:02.000Z,0.05
2023-05-23T19:33:28.802Z,0.57
2023-05-23T19:35:55.609Z,0.20
2023-05-23T19:38:22.977Z,0.45
2023-05-23T19:40:50.039Z,0.00
2023-05-23T19:43:17.114Z,0.30
2023-05-23T19:45:43.947Z,0.45
2023-05-23T19:48:11.430Z,0.08
2023-05-23T19:50:41.067Z,0.95
2023-05-23T19:53:08.616Z,0.00
2023-05-23T19:55:36.261Z,0.40
2023-05-23T19:58:03.550Z,0.30
2023-05-23T20:00:30.666Z,0.17
2023-05-23T20:02:57.618Z,0.15
2023-05-23T20:05:24.415Z,0.28
2023-05-23T20:07:52.262Z,0.00
2023-05-23T20:10:19.633Z,0.38
2023-05-23T20:12:48.112Z,0.15
2023-05-23T20:15:17.686Z,0.08
2023-05-23T20:17:49.193Z,0.10
2023-05-23T20:20:17.605Z,0.73
2023-05-23T20:22:44.596Z,0.38
2023-05-23T20:25:11.393Z,0.40
2023-05-23T20:27:38.379Z,0.43
2023-05-23T20:30:07.673Z,0.22
2023-05-23T20:32:34.487Z,0.43
2023-05-23T20:35:02.091Z,0.25
2023-05-23T20:37:29.272Z,0.50
2023-05-23T20:39:56.396Z,1.75
2023-05-23T20:42:25.311Z,0.73
2023-05-23T20:44:52.563Z,0.80
2023-05-23T20:47:21.528Z,0.47
2023-05-23T20:49:49.050Z,0.32
2023-05-23T20:52:16.074Z,0.00
2023-05-23T20:54:43.529Z,0.00
2023-05-23T20:57:10.802Z,0.63
2023-05-23T20:59:38.484Z,0.75
2023-05-23T21:02:05.627Z,0.00
2023-05-23T21:04:32.682Z,0.13
2023-05-23T21:07:01.337Z,0.20
2023-05-23T21:09:28.514Z,0.20
2023-05-23T21:12:08.707Z,0.00
2023-05-23T21:14:35.782Z,0.00
2023-05-23T21:17:03.139Z,0.43
2023-05-23T21:19:30.338Z,0.20
2023-05-23T21:21:57.814Z,0.05
2023-05-23T21:24:25.378Z,0.08
2023-05-23T21:26:55.386Z,0.00
2023-05-23T21:29:22.571Z,0.08
2023-05-23T21:31:49.428Z,0.00
2023-05-23T21:34:23.733Z,1.25
2023-05-23T21:36:52.332Z,0.60
2023-05-23T21:39:19.527Z,0.08
2023-05-23T21:41:46.849Z,0.00
2023-05-23T21:44:15.610Z,0.28
2023-05-23T21:46:42.644Z,1.02
2023-05-23T21:49:09.865Z,0.03
2023-05-23T21:51:38.330Z,0.05
2023-05-23T21:54:05.830Z,1.52
2023-05-23T21:56:33.151Z,0.43
2023-05-23T21:58:59.899Z,0.45
2023-05-23T22:01:27.298Z,0.15
2023-05-23T22:03:54.788Z,0.00
2023-05-23T22:06:21.966Z,0.22
2023-05-23T22:08:48.792Z,0.05
2023-05-23T22:11:16.759Z,0.40
2023-05-23T22:13:43.848Z,0.00
2023-05-23T22:16:10.844Z,0.00
2023-05-23T22:18:51.043Z,0.10
2023-05-23T22:21:19.099Z,0.20
2023-05-23T22:23:46.577Z,0.00
2023-05-23T22:26:14.597Z,1.88
2023-05-23T22:28:42.762Z,0.22
2023-05-23T22:31:12.085Z,0.20
2023-05-23T22:33:41.186Z,0.43
2023-05-23T22:36:09.566Z,0.57
2023-05-23T22:38:37.641Z,0.10
2023-05-23T22:41:04.837Z,0.95
2023-05-23T22:43:31.952Z,0.50
2023-05-23T22:45:59.050Z,0.63
2023-05-23T22:48:26.176Z,0.73
2023-05-23T22:50:54.897Z,0.25
2023-05-23T22:53:22.790Z,0.00
2023-05-23T22:55:50.113Z,0.03
2023-05-23T22:58:17.339Z,0.10
2023-05-23T23:00:45.510Z,0.52
2023-05-23T23:03:12.883Z,0.00
2023-05-23T23:05:39.999Z,0.00
2023-05-23T23:08:07.015Z,1.67
2023-05-23T23:10:34.573Z,0.00
2023-05-23T23:13:01.693Z,0.00
2023-05-23T23:15:30.382Z,0.57
2023-05-23T23:17:57.560Z,0.65
2023-05-23T23:20:25.278Z,0.60
2023-05-23T23:22:52.380Z,0.10
2023-05-23T23:25:20.724Z,0.00
2023-05-23T23:27:47.909Z,0.00
2023-05-23T23:30:14.733Z,0.17
2023-05-23T23:32:41.661Z,0.15
2023-05-23T23:35:09.806Z,0.10
2023-05-23T23:37:37.169Z,0.10
2023-05-23T23:40:05.824Z,0.10
2023-05-23T23:42:32.825Z,0.00
2023-05-23T23:44:59.959Z,0.73
2023-05-23T23:47:27.474Z,0.10
2023-05-23T23:49:54.804Z,0.00
2023-05-23T23:52:21.935Z,0.17
2023-05-23T23:54:48.944Z,0.25
2023-05-23T23:57:16.071Z,0.00
2023-05-23T23:59:43.135Z,0.45
